Terminal Aerodrome Forecast
Issued by NWS

Home | Current Version | Previous Version | Text Only | Print | Product List | Glossary On
Versions: 1 2 3 4 5 6 7 8 9 10 11 12 13 14 15
000
FTUS41 KBOX 280926 AAB
TAFBED
TAF AMD
KBED 280926Z 2809/2906 21004KT P6SM SCT250
     FM281300 25005KT P6SM SCT250
     FM282300 20006KT P6SM VCSH SCT250
     FM290100 19004KT P6SM SCT200
     FM290300 VRB03KT P6SM SCT050=

USA.gov is the U.S. government's official web portal to all federal, state and local government web resources and services.